Barrow: Past 24 Hour Conditions

 

Hall Beach Airport

12:00 AM EDT 24 April 2014
This table is a summary of hourly weather conditions for the past 24 hours.
Date / Time
(EDT)
Wind(knots) Conditions Visibility(km) Pressure(kPa) Air tempC) Relative humidity(%) Dew pointC) Wind Chill
24 April 2014
0:00 SW 10 Light Snow 16 102.1 -21 84 -23 -31
23 April 2014
23:00 WSW 7 Light Snow 16 102.2 -21 84 -23 -29
22:00 WSW 6 Light Snow 16 102.2 -17 85 -19 -24
21:00 W 5 Light Snow 4 102.2 -16 85 -18 -22
20:00 WNW 9 Partly Cloudy 24 102.2 -17 83 -20 -26
19:00 WNW 9 Mostly Cloudy 24 102.3 -17 80 -19 -25
18:00 WNW 10 Cloudy 24 102.3 -16 79 -19 -26
17:00 WNW 11 Partly Cloudy 24 102.2 -15 77 -19 -25
16:00 WNW 12 Partly Cloudy 24 102.2 -15 76 -19 -25
15:00 WNW 13 Cloudy 24 102.2 -16 76 -19 -26
14:00 NW 12 Cloudy 24 102.2 -15 76 -19 -25
13:00 WNW 11 Mostly Cloudy 24 102.2 -16 78 -19 -26
12:00 WNW 13 Drifting Snow 24 102.2 -17 77 -20 -27
11:00 WNW 13 Drifting Snow 24 102.2 -18 78 -21 -29
10:00 WNW 13 Drifting Snow 24 102.2 -19 78 -22 -30
9:00 NW 14 Drifting Snow 24 102.2 -20 78 -23 -31
8:00 WNW 12 Mainly Sunny 24 102.1 -21 79 -24 -32
7:00 WNW 10 Mainly Sunny 16 102.1 -22 79 -25 -33
6:00 WNW 12 Mostly Cloudy 16 102.1 -20 80 -23 -31
5:00 NW 14 Mostly Cloudy 16 102.1 -20 80 -23 -32
4:00 NW 15 Mostly Cloudy 16 102.0 -20 82 -23 -33
3:00 WNW 11 Mainly Clear 16 102.0 -22 83 -24 -33
2:00 NW 11 Mainly Clear 16 102.0 -21 80 -24 -32
1:00 WNW 8 Partly Cloudy 16 102.0 -22 82 -24 -31
0:00 NW 14 Mainly Clear 16 102.0 -21 82 -24 -34
 
Map of Arctic - Eastern Arctic marine weather areas Baker Lake Airport Chesterfield Inlet Airport Coral Harbour Airport Gjoa Haven Airport Kugaaruk Airport Rankin Inlet Airport Shepherd Bay Airport Whale Cove Airport Arctic Bay Brevoort Island Qikiqtarjuaq Airport Cape Dorset Airport Cape Dyer Cape Hooper Clyde Airport Grise Fiord Airport Hall Beach Airport Igloolik Airport Iqaluit Airport Longstaff Bluff Pangnirtung Airport Pond Inlet Airport Repulse Bay Airport Resolute Airport Resolution Island Rowley Island Airport Taloyoak Airport Wager Bay Akulivik Airport Ivujivik Airport Puvirnituq Airport Kangiqsujuaq Airport Kangirsuk Airport Quaqtaq Airport Tasiujaq Airport Cape Kakkiviak Cape Kiglapait Nain Airport Saglek Cape Mercy Kimmirut Airport Aupaluk Airport Salluit Airport Kangiqsualujjuaq Airport Fort Ross
Legend: buoyBuoy land stationLand Station